Time;durP1;ratioP1;P1;durP2;ratioP2;P2;SDS_P1;SDS_P2;PMS_P1;PMS_P2;Temp;Humidity;BMP_temperature;BMP_pressure;BME280_temperature;BME280_humidity;BME280_pressure;Samples;Min_cycle;Max_cycle;Signal;HPM_P1;HPM_P2
2022/04/24 00:02:04;;;;;;;4.70;3.15;;;15.80;47.90;;;;;;4893965;29;20290;-82
2022/04/24 00:04:30;;;;;;;5.93;3.57;;;15.80;48.00;;;;;;4904522;29;20416;-82
2022/04/24 00:06:55;;;;;;;4.55;3.08;;;15.70;47.90;;;;;;4890878;29;20118;-82
2022/04/24 00:09:21;;;;;;;4.77;3.17;;;15.60;47.90;;;;;;4902132;29;20236;-83
2022/04/24 00:11:47;;;;;;;4.78;3.15;;;15.60;47.90;;;;;;4905725;29;20564;-82
2022/04/24 00:14:14;;;;;;;5.05;3.25;;;15.50;47.90;;;;;;4892738;29;20075;-83
2022/04/24 00:16:41;;;;;;;4.50;3.10;;;15.50;47.90;;;;;;4895572;29;20115;-82
2022/04/24 00:19:07;;;;;;;4.23;2.87;;;15.40;47.90;;;;;;4902967;29;20123;-83
2022/04/24 00:21:33;;;;;;;4.53;2.83;;;15.40;47.90;;;;;;4874438;29;20198;-82
2022/04/24 00:23:59;;;;;;;3.83;2.83;;;15.30;47.80;;;;;;4900512;29;20107;-82
2022/04/24 00:26:24;;;;;;;4.13;2.47;;;15.30;47.80;;;;;;4891841;29;20072;-82
2022/04/24 00:28:50;;;;;;;3.17;2.28;;;15.20;47.80;;;;;;4892329;29;20242;-82
2022/04/24 00:31:16;;;;;;;3.70;2.50;;;15.20;47.90;;;;;;4904651;29;20580;-82
2022/04/24 00:33:42;;;;;;;4.00;2.42;;;15.20;48.00;;;;;;4893450;29;20516;-83
2022/04/24 00:36:08;;;;;;;3.40;2.30;;;15.20;48.00;;;;;;4907176;29;20051;-83
2022/04/24 00:38:35;;;;;;;3.78;2.42;;;15.20;48.10;;;;;;4882204;29;20047;-83
2022/04/24 00:41:01;;;;;;;4.55;2.40;;;15.20;48.10;;;;;;4902964;29;20042;-82
2022/04/24 00:43:29;;;;;;;3.08;2.17;;;15.10;48.00;;;;;;4885971;29;20115;-83
2022/04/24 00:46:07;;;;;;;3.28;2.20;;;15.10;48.00;;;;;;4899117;29;20310;-82
2022/04/24 00:48:34;;;;;;;3.33;2.10;;;15.00;48.50;;;;;;4889795;29;20048;-82
2022/04/24 00:51:00;;;;;;;3.30;2.10;;;15.00;48.00;;;;;;4902731;29;20541;-83
2022/04/24 00:53:25;;;;;;;3.38;2.10;;;15.00;48.00;;;;;;4882015;29;20040;-82
2022/04/24 00:55:52;;;;;;;3.07;2.10;;;15.00;48.00;;;;;;4891208;29;20437;-82
2022/04/24 00:58:18;;;;;;;3.72;2.22;;;14.90;48.00;;;;;;4901959;29;20825;-82
2022/04/24 01:00:44;;;;;;;2.78;2.10;;;14.90;48.70;;;;;;4893660;29;20460;-84
2022/04/24 01:03:13;;;;;;;3.08;2.20;;;14.90;48.00;;;;;;4900268;29;20036;-84
2022/04/24 01:05:39;;;;;;;3.60;2.17;;;14.80;48.10;;;;;;4881255;29;20393;-84
2022/04/24 01:08:04;;;;;;;4.75;2.20;;;14.80;48.10;;;;;;4886652;29;20039;-84
2022/04/24 01:10:40;;;;;;;3.55;1.98;;;14.80;48.20;;;;;;4903749;29;20425;-84
2022/04/24 01:13:06;;;;;;;3.07;2.10;;;14.80;48.60;;;;;;4900949;29;20040;-83
2022/04/24 01:15:33;;;;;;;2.97;1.90;;;14.70;48.30;;;;;;4895466;29;20128;-84
2022/04/24 01:18:00;;;;;;;2.90;2.08;;;14.70;48.40;;;;;;4901070;29;20166;-83
2022/04/24 01:20:26;;;;;;;2.55;1.77;;;14.60;48.40;;;;;;4879389;29;20036;-83
2022/04/24 01:22:52;;;;;;;2.97;1.98;;;14.60;48.30;;;;;;4900695;29;20032;-83
2022/04/24 01:25:17;;;;;;;2.77;1.97;;;14.50;48.40;;;;;;4886218;29;20497;-83
2022/04/24 01:27:43;;;;;;;3.30;1.83;;;14.50;48.40;;;;;;4899654;29;20440;-83
2022/04/24 01:30:09;;;;;;;3.10;1.90;;;14.50;48.50;;;;;;4893422;29;20055;-83
2022/04/24 01:32:35;;;;;;;2.93;2.00;;;14.50;48.70;;;;;;4891933;29;20556;-84
2022/04/24 01:35:02;;;;;;;2.85;1.90;;;14.40;48.60;;;;;;4892567;29;20244;-84
2022/04/24 01:37:27;;;;;;;2.80;1.95;;;14.40;49.00;;;;;;4900445;29;20036;-83
2022/04/24 01:39:56;;;;;;;2.37;1.70;;;14.40;49.00;;;;;;4884071;29;20894;-84
2022/04/24 01:42:22;;;;;;;2.92;2.00;;;14.40;49.10;;;;;;4899921;29;20244;-83
2022/04/24 01:44:48;;;;;;;2.95;1.98;;;14.30;49.00;;;;;;4891592;29;20637;-83
2022/04/24 01:47:14;;;;;;;2.47;1.67;;;14.40;49.00;;;;;;4901454;29;20046;-83
2022/04/24 01:49:39;;;;;;;3.42;2.15;;;14.30;49.50;;;;;;4887283;29;20036;-83
2022/04/24 01:52:09;;;;;;;3.47;2.00;;;14.30;49.00;;;;;;4903492;29;20533;-84
2022/04/24 01:54:35;;;;;;;3.33;1.90;;;14.20;49.20;;;;;;4906157;29;20078;-84
2022/04/24 01:57:00;;;;;;;3.38;2.10;;;14.20;49.00;;;;;;4884521;29;20040;-83
2022/04/24 01:59:26;;;;;;;2.45;1.73;;;14.10;49.10;;;;;;4905032;29;20070;-83
2022/04/24 02:01:52;;;;;;;3.27;1.93;;;14.10;49.10;;;;;;4894228;29;20115;-83
2022/04/24 02:04:22;;;;;;;2.88;1.95;;;14.10;49.10;;;;;;4889882;29;20040;-84
2022/04/24 02:06:49;;;;;;;2.50;1.58;;;14.00;49.20;;;;;;4887348;29;20234;-83
2022/04/24 02:09:15;;;;;;;2.90;1.80;;;14.00;49.30;;;;;;4929535;28;20096;-84
2022/04/24 02:11:40;;;;;;;2.70;1.73;;;13.90;49.40;;;;;;4882588;29;20712;-83
2022/04/24 02:14:06;;;;;;;3.23;1.83;;;13.90;49.60;;;;;;4903748;29;20055;-83
2022/04/24 02:16:32;;;;;;;2.90;1.98;;;13.80;49.60;;;;;;4890576;29;20051;-83
2022/04/24 02:18:57;;;;;;;2.20;1.60;;;13.80;49.70;;;;;;4892415;29;20063;-84
2022/04/24 02:21:23;;;;;;;2.73;2.10;;;13.80;49.80;;;;;;4897959;29;20295;-83
2022/04/24 02:23:49;;;;;;;2.40;1.80;;;13.80;50.00;;;;;;4892087;29;20254;-84
2022/04/24 02:26:15;;;;;;;2.77;2.07;;;13.70;49.90;;;;;;4906545;29;20580;-83
2022/04/24 02:28:41;;;;;;;2.35;1.65;;;13.70;50.10;;;;;;4896878;29;20036;-84
2022/04/24 02:31:07;;;;;;;2.38;1.65;;;13.70;50.00;;;;;;4897397;29;20396;-84
2022/04/24 02:33:34;;;;;;;2.00;1.50;;;13.70;50.10;;;;;;4905394;29;20126;-84
2022/04/24 02:35:59;;;;;;;3.65;2.00;;;13.60;50.00;;;;;;4904847;29;20378;-83
2022/04/24 02:38:25;;;;;;;2.08;1.63;;;13.60;50.10;;;;;;4901043;29;20489;-84
2022/04/24 02:40:51;;;;;;;2.63;1.73;;;13.60;50.10;;;;;;4902543;29;20040;-84
2022/04/24 02:43:16;;;;;;;2.42;1.80;;;13.60;50.40;;;;;;4888736;29;20519;-83
2022/04/24 02:45:42;;;;;;;2.60;1.93;;;13.50;50.20;;;;;;4902747;29;20698;-84
2022/04/24 02:48:08;;;;;;;2.70;1.65;;;13.50;50.60;;;;;;4897982;29;20055;-83
2022/04/24 02:50:33;;;;;;;2.90;1.73;;;13.50;50.50;;;;;;4903013;29;20106;-83
2022/04/24 02:52:59;;;;;;;2.55;1.73;;;13.50;50.60;;;;;;4897137;29;20036;-84
2022/04/24 02:55:25;;;;;;;2.40;1.60;;;13.50;50.70;;;;;;4905322;29;20067;-84
2022/04/24 02:57:51;;;;;;;3.00;1.90;;;13.50;50.80;;;;;;4901606;29;20146;-84
2022/04/24 03:00:25;;;;;;;2.40;1.70;;;13.50;50.80;;;;;;4888380;29;20043;-83
2022/04/24 03:02:51;;;;;;;2.70;1.80;;;13.50;50.90;;;;;;4895184;29;20127;-83
2022/04/24 03:05:19;;;;;;;3.17;1.80;;;13.50;50.90;;;;;;4895987;29;20087;-84
2022/04/24 03:07:45;;;;;;;2.70;1.67;;;13.40;50.90;;;;;;4899101;29;20039;-84
2022/04/24 03:10:11;;;;;;;2.20;1.65;;;13.50;50.90;;;;;;4887151;29;20071;-83
2022/04/24 03:12:38;;;;;;;2.63;1.87;;;13.50;51.10;;;;;;4900892;29;20417;-83
2022/04/24 03:15:05;;;;;;;2.85;2.00;;;13.50;51.20;;;;;;4888127;29;20063;-83
2022/04/24 03:17:32;;;;;;;3.83;1.90;;;13.50;51.30;;;;;;4900648;29;20036;-81
2022/04/24 03:20:03;;;;;;;2.70;1.95;;;13.50;51.30;;;;;;4895106;29;20357;-83
2022/04/24 03:22:30;;;;;;;2.45;1.90;;;13.50;51.40;;;;;;4902586;29;20117;-84
2022/04/24 03:24:57;;;;;;;2.73;2.00;;;13.60;51.60;;;;;;4894701;29;20040;-83
2022/04/24 03:27:23;;;;;;;2.70;2.00;;;13.60;51.70;;;;;;4900784;29;20050;-83
2022/04/24 03:29:49;;;;;;;2.70;1.85;;;13.60;51.40;;;;;;4884454;29;20128;-83
2022/04/24 03:32:14;;;;;;;2.50;1.80;;;13.60;51.40;;;;;;4893691;29;20163;-84
2022/04/24 03:34:40;;;;;;;2.63;2.00;;;13.60;51.40;;;;;;4892820;29;20351;-83
2022/04/24 03:37:06;;;;;;;3.20;2.10;;;13.60;51.40;;;;;;4900256;29;20032;-84
2022/04/24 03:39:32;;;;;;;2.70;2.00;;;13.60;51.30;;;;;;4890076;29;20032;-83
2022/04/24 03:41:58;;;;;;;2.28;1.63;;;13.70;51.40;;;;;;4899564;29;20242;-84
2022/04/24 03:44:24;;;;;;;3.63;1.90;;;13.60;51.30;;;;;;4902956;29;20039;-83
2022/04/24 03:46:49;;;;;;;2.40;1.80;;;13.60;51.30;;;;;;4885863;29;20629;-84
2022/04/24 03:49:16;;;;;;;2.83;2.10;;;13.60;51.20;;;;;;4906033;29;20043;-84
2022/04/24 03:51:42;;;;;;;2.67;1.90;;;13.60;51.40;;;;;;4894263;29;20457;-83
2022/04/24 03:54:07;;;;;;;3.45;1.80;;;13.60;51.40;;;;;;4900142;29;20316;-84
2022/04/24 03:56:34;;;;;;;2.50;2.08;;;13.60;51.40;;;;;;4893705;29;20040;-84
2022/04/24 03:59:00;;;;;;;2.60;1.90;;;13.60;51.50;;;;;;4899709;29;22950;-83
2022/04/24 04:01:25;;;;;;;3.20;2.15;;;13.60;51.50;;;;;;4897611;29;20032;-84
2022/04/24 04:03:51;;;;;;;2.60;2.00;;;13.60;51.70;;;;;;4890757;29;20071;-83
2022/04/24 04:06:17;;;;;;;2.70;2.00;;;13.60;51.70;;;;;;4886475;29;20054;-83
2022/04/24 04:08:43;;;;;;;2.53;1.98;;;13.60;51.70;;;;;;4892531;29;20194;-84
2022/04/24 04:11:08;;;;;;;3.60;2.00;;;13.60;51.80;;;;;;4896284;29;20028;-83
2022/04/24 04:13:35;;;;;;;2.42;1.90;;;13.60;51.80;;;;;;4900559;29;20078;-83
2022/04/24 04:16:00;;;;;;;3.30;2.05;;;13.60;51.70;;;;;;4903068;29;20032;-83
2022/04/24 04:18:26;;;;;;;2.70;2.20;;;13.70;51.70;;;;;;4885190;29;20036;-84
2022/04/24 04:20:52;;;;;;;2.55;1.90;;;13.70;51.60;;;;;;4892727;29;20239;-83
2022/04/24 04:23:17;;;;;;;3.10;2.07;;;13.70;51.60;;;;;;4903861;29;20079;-83
2022/04/24 04:25:43;;;;;;;2.78;2.10;;;13.60;51.60;;;;;;4922367;28;20449;-83
2022/04/24 04:28:09;;;;;;;2.50;1.87;;;13.60;51.60;;;;;;4904665;29;20051;-83
2022/04/24 04:30:35;;;;;;;3.28;2.05;;;13.60;51.60;;;;;;4900590;29;20059;-83
2022/04/24 04:33:00;;;;;;;2.60;1.83;;;13.60;51.80;;;;;;4896977;29;20482;-84
2022/04/24 04:35:26;;;;;;;2.60;1.90;;;13.50;51.60;;;;;;4901816;29;20040;-84
2022/04/24 04:37:52;;;;;;;2.67;2.00;;;13.50;51.70;;;;;;4894901;29;20123;-83
2022/04/24 04:40:20;;;;;;;2.83;2.05;;;13.50;51.70;;;;;;4896857;29;20042;-84
2022/04/24 04:42:46;;;;;;;3.03;2.15;;;13.40;51.70;;;;;;4890781;29;20234;-83
2022/04/24 04:45:12;;;;;;;2.70;1.93;;;13.40;51.70;;;;;;4899248;29;20036;-83
2022/04/24 04:47:38;;;;;;;2.33;1.90;;;13.40;51.60;;;;;;4896792;29;20066;-83
2022/04/24 04:50:04;;;;;;;3.10;2.10;;;13.30;51.70;;;;;;4883123;29;20115;-83
2022/04/24 04:52:29;;;;;;;2.38;1.83;;;13.30;51.70;;;;;;4890564;29;20119;-83
2022/04/24 04:54:55;;;;;;;2.90;1.90;;;13.30;51.80;;;;;;4897724;29;20028;-84
2022/04/24 04:57:20;;;;;;;2.70;2.10;;;13.20;51.90;;;;;;4894088;29;20029;-84
2022/04/24 04:59:46;;;;;;;2.87;2.13;;;13.20;52.00;;;;;;4876892;29;20044;-83
2022/04/24 05:02:12;;;;;;;2.60;1.90;;;13.10;52.00;;;;;;4884815;29;20642;-84
2022/04/24 05:04:38;;;;;;;3.03;2.10;;;13.10;52.10;;;;;;4875555;29;20053;-83
2022/04/24 05:07:04;;;;;;;2.85;2.20;;;13.10;52.40;;;;;;4875797;29;20240;-83
2022/04/24 05:09:30;;;;;;;2.60;2.03;;;13.10;52.40;;;;;;4897577;29;20051;-83
2022/04/24 05:11:55;;;;;;;2.90;2.10;;;13.10;52.50;;;;;;4892844;29;20036;-84
2022/04/24 05:14:21;;;;;;;3.83;2.20;;;13.10;52.50;;;;;;4889955;29;20481;-83
2022/04/24 05:16:47;;;;;;;2.63;2.17;;;13.10;52.60;;;;;;4881488;29;20042;-84
2022/04/24 05:19:12;;;;;;;4.47;2.13;;;13.10;52.70;;;;;;4895354;29;20550;-83
2022/04/24 05:21:38;;;;;;;2.50;2.10;;;13.00;52.60;;;;;;4872811;29;20412;-83
2022/04/24 05:24:04;;;;;;;2.90;2.17;;;13.00;52.70;;;;;;4877650;29;20308;-84
2022/04/24 05:26:31;;;;;;;2.80;2.10;;;13.00;52.60;;;;;;4899442;29;20029;-83
2022/04/24 05:28:56;;;;;;;3.03;2.25;;;13.10;52.70;;;;;;4891416;29;20058;-82
2022/04/24 05:31:22;;;;;;;2.70;2.08;;;13.00;52.70;;;;;;4882828;29;20477;-83
2022/04/24 05:33:48;;;;;;;2.90;2.13;;;13.00;52.70;;;;;;4895011;29;20079;-83
2022/04/24 05:36:13;;;;;;;3.80;2.37;;;13.00;52.90;;;;;;4875858;29;24224;-83
2022/04/24 05:38:39;;;;;;;3.00;2.20;;;13.00;52.90;;;;;;4898777;29;20050;-83
2022/04/24 05:41:05;;;;;;;3.30;2.33;;;13.00;53.00;;;;;;4894508;29;20040;-84
2022/04/24 05:43:30;;;;;;;3.07;2.33;;;13.10;53.70;;;;;;4898768;29;20044;-83
2022/04/24 05:45:56;;;;;;;3.90;2.40;;;13.10;53.10;;;;;;4876115;29;20051;-83
2022/04/24 05:48:22;;;;;;;3.47;2.53;;;13.10;53.20;;;;;;4895820;29;20135;-84
2022/04/24 05:50:48;;;;;;;3.97;2.60;;;13.10;53.30;;;;;;4895352;29;20032;-83
2022/04/24 05:53:14;;;;;;;4.03;2.57;;;13.10;53.40;;;;;;4868845;29;20120;-84
2022/04/24 05:55:40;;;;;;;4.25;2.65;;;13.10;53.30;;;;;;4888656;29;20127;-82
2022/04/24 05:58:06;;;;;;;3.30;2.42;;;13.10;53.50;;;;;;4892158;29;20120;-83
2022/04/24 06:00:31;;;;;;;3.58;2.72;;;13.10;53.20;;;;;;4892681;29;20460;-83
2022/04/24 06:02:57;;;;;;;3.33;2.33;;;13.10;53.40;;;;;;4895147;29;20036;-83
2022/04/24 06:05:23;;;;;;;3.55;2.50;;;13.20;53.40;;;;;;4897779;29;20067;-84
2022/04/24 06:07:50;;;;;;;4.30;2.58;;;13.20;53.40;;;;;;4888152;29;20087;-83
2022/04/24 06:10:16;;;;;;;4.00;2.70;;;13.30;53.70;;;;;;4885418;29;20478;-83
2022/04/24 06:12:47;;;;;;;3.17;2.45;;;13.30;53.80;;;;;;4925414;28;20056;-83
2022/04/24 06:15:17;;;;;;;3.22;2.47;;;13.40;54.10;;;;;;4887194;29;20067;-84
2022/04/24 06:17:43;;;;;;;3.70;2.63;;;13.40;53.90;;;;;;4890910;29;20036;-84
2022/04/24 06:20:10;;;;;;;3.80;2.75;;;13.60;54.00;;;;;;4902549;29;20579;-84
2022/04/24 06:22:53;;;;;;;3.40;2.70;;;13.60;53.90;;;;;;4894012;29;20214;-83
2022/04/24 06:25:27;;;;;;;4.03;2.70;;;13.70;54.20;;;;;;4891313;29;20434;-83
2022/04/24 06:27:53;;;;;;;4.10;3.05;;;13.80;53.80;;;;;;4900756;29;20040;-83
2022/04/24 06:30:21;;;;;;;4.90;2.95;;;13.80;53.80;;;;;;4886057;29;20044;-83
2022/04/24 06:32:47;;;;;;;4.15;2.90;;;13.90;53.70;;;;;;4890871;29;20035;-83
2022/04/24 06:35:14;;;;;;;4.00;2.70;;;13.90;53.40;;;;;;4893870;29;20058;-84
2022/04/24 06:37:54;;;;;;;4.47;2.95;;;14.00;53.60;;;;;;4886889;29;20129;-84
2022/04/24 06:40:23;;;;;;;3.67;2.65;;;14.00;53.80;;;;;;4892824;29;20099;-84
2022/04/24 06:42:53;;;;;;;3.97;3.10;;;14.10;53.60;;;;;;4895221;29;20059;-83
2022/04/24 06:45:25;;;;;;;4.05;3.03;;;14.10;53.60;;;;;;4882699;29;20040;-83
2022/04/24 06:47:52;;;;;;;4.25;3.10;;;14.20;53.50;;;;;;4893101;29;20048;-83
2022/04/24 06:50:18;;;;;;;4.20;3.15;;;14.20;53.50;;;;;;4892431;29;20048;-83
2022/04/24 06:52:44;;;;;;;5.50;3.40;;;14.30;53.30;;;;;;4884179;29;20658;-83
2022/04/24 06:55:09;;;;;;;3.67;2.90;;;14.30;53.40;;;;;;4902928;29;20039;-83
2022/04/24 06:57:35;;;;;;;5.13;3.47;;;14.40;53.40;;;;;;4888359;29;20224;-84
2022/04/24 07:00:01;;;;;;;4.22;3.10;;;14.50;53.50;;;;;;4882803;29;20123;-83
2022/04/24 07:02:26;;;;;;;3.53;2.80;;;14.60;53.80;;;;;;4887153;29;20044;-82
2022/04/24 07:04:52;;;;;;;3.72;2.80;;;14.70;54.00;;;;;;4882849;29;20400;-84
2022/04/24 07:07:18;;;;;;;4.83;3.40;;;14.80;54.00;;;;;;4893389;29;20383;-83
2022/04/24 07:09:43;;;;;;;4.40;3.17;;;15.00;54.30;;;;;;4886461;29;20052;-83
2022/04/24 07:12:09;;;;;;;4.93;3.70;;;15.20;54.70;;;;;;4890264;29;20537;-84
2022/04/24 07:14:35;;;;;;;4.82;3.40;;;15.50;54.90;;;;;;4882919;29;20638;-83
2022/04/24 07:17:00;;;;;;;3.93;3.20;;;15.80;54.70;;;;;;4895989;29;20107;-84
2022/04/24 07:19:26;;;;;;;3.60;2.95;;;16.10;54.30;;;;;;4879013;29;20408;-84
2022/04/24 07:21:52;;;;;;;5.07;3.17;;;16.40;54.00;;;;;;4928204;29;20016;-83
2022/04/24 07:24:17;;;;;;;4.17;3.47;;;16.60;53.80;;;;;;4880730;29;20044;-82
2022/04/24 07:26:43;;;;;;;4.80;3.58;;;16.90;53.70;;;;;;4905104;29;20531;-84
2022/04/24 07:29:08;;;;;;;3.80;3.10;;;17.20;53.50;;;;;;4894787;29;20043;-83
2022/04/24 07:31:34;;;;;;;4.88;3.70;;;17.40;53.50;;;;;;4890379;29;20051;-83
2022/04/24 07:33:59;;;;;;;3.70;3.13;;;17.70;53.50;;;;;;4904232;29;20095;-83
2022/04/24 07:36:25;;;;;;;3.70;3.20;;;18.00;53.40;;;;;;4889251;29;20293;-86
2022/04/24 07:38:51;;;;;;;4.40;3.17;;;18.30;53.30;;;;;;4888895;29;20039;-84
2022/04/24 07:41:17;;;;;;;4.80;3.90;;;18.60;52.70;;;;;;4900214;29;20036;-84
2022/04/24 07:43:48;;;;;;;5.15;3.50;;;18.80;51.60;;;;;;4888339;29;20071;-83
2022/04/24 07:46:17;;;;;;;5.88;3.75;;;19.10;51.70;;;;;;4889716;29;20484;-83
2022/04/24 07:48:43;;;;;;;3.90;3.33;;;19.40;51.40;;;;;;4900706;29;20186;-84
2022/04/24 07:51:08;;;;;;;4.88;3.58;;;19.60;52.10;;;;;;4895909;29;20400;-84
2022/04/24 07:53:34;;;;;;;4.50;3.37;;;19.90;52.00;;;;;;4877381;29;20748;-86
2022/04/24 07:56:00;;;;;;;5.13;3.40;;;20.30;52.00;;;;;;4903342;29;20030;-83
2022/04/24 07:58:25;;;;;;;5.00;3.45;;;20.70;51.80;;;;;;4886410;29;20032;-82
2022/04/24 08:00:51;;;;;;;4.17;3.20;;;21.00;51.70;;;;;;4900286;29;20397;-83
2022/04/24 08:03:19;;;;;;;3.55;3.00;;;21.40;51.10;;;;;;4888440;29;20088;-82
2022/04/24 08:05:50;;;;;;;3.97;3.53;;;21.80;51.00;;;;;;4901877;29;20032;-82
2022/04/24 08:08:21;;;;;;;3.75;3.25;;;22.20;49.80;;;;;;4884082;29;20036;-82
2022/04/24 08:10:49;;;;;;;3.65;2.95;;;22.50;49.30;;;;;;4923004;28;20055;-82
2022/04/24 08:13:19;;;;;;;4.07;3.38;;;22.90;49.40;;;;;;4883527;29;20036;-83
2022/04/24 08:15:45;;;;;;;3.95;3.30;;;23.20;48.30;;;;;;4900242;29;20293;-83
2022/04/24 08:18:11;;;;;;;4.20;3.33;;;23.40;48.00;;;;;;4889252;29;20044;-83
2022/04/24 08:20:38;;;;;;;4.15;3.10;;;23.80;48.00;;;;;;4883091;29;20442;-82
2022/04/24 08:23:05;;;;;;;3.63;3.33;;;24.00;47.50;;;;;;4883785;29;20130;-83
2022/04/24 08:25:35;;;;;;;3.78;3.38;;;24.30;46.80;;;;;;4874809;29;20074;-82
2022/04/24 08:28:06;;;;;;;3.83;3.17;;;24.60;46.70;;;;;;4888343;29;20036;-82
2022/04/24 08:30:34;;;;;;;3.80;3.40;;;25.00;46.00;;;;;;4898652;29;20449;-83
2022/04/24 08:33:00;;;;;;;3.75;3.28;;;25.30;45.70;;;;;;4893480;29;20070;-83
2022/04/24 08:35:26;;;;;;;3.58;3.20;;;25.60;45.70;;;;;;4893067;29;20118;-83
2022/04/24 08:37:52;;;;;;;3.90;3.15;;;25.80;45.20;;;;;;4884930;29;21327;-82
2022/04/24 08:40:20;;;;;;;4.23;3.03;;;26.10;44.70;;;;;;4872936;29;20448;-83
2022/04/24 08:42:46;;;;;;;3.67;3.20;;;26.40;44.10;;;;;;4891394;29;20091;-83
2022/04/24 08:45:14;;;;;;;3.60;3.20;;;26.60;43.40;;;;;;4904359;29;20604;-83
2022/04/24 08:47:44;;;;;;;4.47;3.33;;;26.80;43.00;;;;;;4894643;29;20036;-83
2022/04/24 08:50:12;;;;;;;4.07;3.00;;;27.00;42.90;;;;;;4885296;29;20150;-82
2022/04/24 08:52:41;;;;;;;3.70;3.30;;;27.20;42.20;;;;;;4886934;29;20035;-82
2022/04/24 08:55:07;;;;;;;3.75;3.33;;;27.30;41.30;;;;;;4896827;29;20382;-82
2022/04/24 08:57:33;;;;;;;3.45;3.15;;;27.50;41.10;;;;;;4930726;29;20433;-83
2022/04/24 09:00:07;;;;;;;4.77;3.03;;;27.70;41.10;;;;;;4889510;29;20119;-83
2022/04/24 09:02:33;;;;;;;3.63;3.10;;;27.80;39.70;;;;;;4901500;29;20032;-83
2022/04/24 09:04:58;;;;;;;3.60;3.15;;;28.00;40.20;;;;;;4896852;29;20370;-83
2022/04/24 09:07:31;;;;;;;3.97;3.20;;;28.10;39.80;;;;;;4883587;29;20433;-82
2022/04/24 09:09:57;;;;;;;3.53;2.90;;;28.30;38.50;;;;;;4907403;29;20043;-81
2022/04/24 09:12:28;;;;;;;3.50;3.20;;;28.50;39.30;;;;;;4883245;29;20036;-83
2022/04/24 09:14:56;;;;;;;3.65;2.92;;;28.60;37.50;;;;;;4886886;29;20123;-82
2022/04/24 09:17:25;;;;;;;3.60;3.22;;;28.70;37.70;;;;;;4895197;29;20024;-83
2022/04/24 09:19:53;;;;;;;3.80;3.40;;;28.80;37.20;;;;;;4905758;29;20126;-83
2022/04/24 09:22:19;;;;;;;3.70;3.40;;;28.80;37.30;;;;;;4892696;29;20071;-83
2022/04/24 09:24:47;;;;;;;3.90;3.00;;;28.90;36.70;;;;;;4894094;29;20041;-83
2022/04/24 09:27:42;;;;;;;3.30;2.80;;;29.00;36.70;;;;;;4884452;29;20707;-82
2022/04/24 09:30:15;;;;;;;3.40;3.10;;;29.10;35.50;;;;;;4884957;29;20040;-84
2022/04/24 09:32:53;;;;;;;3.40;2.90;;;29.30;36.60;;;;;;4889154;29;20047;-82
2022/04/24 09:35:32;;;;;;;3.72;3.30;;;29.50;35.30;;;;;;4910761;28;20123;-81
2022/04/24 09:38:08;;;;;;;3.78;3.30;;;29.60;34.40;;;;;;4892479;29;20036;-80
2022/04/24 09:40:45;;;;;;;3.45;3.15;;;29.70;34.30;;;;;;4897382;29;21355;-82
2022/04/24 09:43:12;;;;;;;3.30;3.00;;;29.70;34.50;;;;;;4878033;29;20164;-82
2022/04/24 09:45:46;;;;;;;3.60;3.20;;;29.80;34.90;;;;;;4900502;29;20032;-81
2022/04/24 09:48:17;;;;;;;4.10;3.03;;;29.90;34.50;;;;;;4889017;29;20218;-82
2022/04/24 09:50:43;;;;;;;3.58;3.28;;;30.00;34.10;;;;;;4900194;29;20036;-82
2022/04/24 09:53:14;;;;;;;5.05;3.22;;;30.10;33.60;;;;;;4898496;29;20230;-81
2022/04/24 09:55:43;;;;;;;3.38;3.08;;;30.20;32.70;;;;;;4892398;29;20318;-82
2022/04/24 09:58:09;;;;;;;3.37;2.77;;;30.20;33.40;;;;;;4882084;29;20037;-81
2022/04/24 10:00:34;;;;;;;3.65;3.10;;;30.30;34.00;;;;;;4902802;29;20044;-82
2022/04/24 10:03:01;;;;;;;3.40;3.10;;;30.40;33.70;;;;;;4888750;29;20040;-82
2022/04/24 10:05:29;;;;;;;4.00;3.60;;;30.50;34.20;;;;;;4899681;29;20404;-81
2022/04/24 10:07:56;;;;;;;3.30;3.00;;;30.70;32.70;;;;;;4896464;29;20048;-81
2022/04/24 10:10:21;;;;;;;3.65;2.92;;;30.80;33.10;;;;;;4892414;29;20106;-83
2022/04/24 10:12:49;;;;;;;4.07;3.30;;;31.00;33.00;;;;;;4880450;29;21854;-82
2022/04/24 10:15:18;;;;;;;3.27;2.97;;;31.10;32.50;;;;;;4900187;29;20028;-81
2022/04/24 10:18:00;;;;;;;5.15;3.30;;;31.20;32.00;;;;;;4888804;29;20398;-81
2022/04/24 10:20:44;;;;;;;4.00;3.42;;;31.40;30.90;;;;;;4918228;29;20028;-81
2022/04/24 10:23:11;;;;;;;4.43;3.40;;;31.50;31.40;;;;;;4900814;29;20139;-82
2022/04/24 10:25:42;;;;;;;3.25;2.95;;;31.60;31.10;;;;;;4896338;29;20404;-81
2022/04/24 10:28:20;;;;;;;3.97;3.20;;;31.60;30.70;;;;;;4901339;29;20050;-82
2022/04/24 10:31:01;;;;;;;3.70;3.40;;;31.60;30.00;;;;;;4868394;29;20294;-82
2022/04/24 10:33:36;;;;;;;7.50;3.60;;;31.70;28.60;;;;;;4886015;29;20091;-82
2022/04/24 10:36:12;;;;;;;3.78;3.45;;;31.70;30.00;;;;;;4898260;29;20511;-82
2022/04/24 10:39:00;;;;;;;3.40;3.10;;;31.80;29.30;;;;;;4899719;29;20505;-81
2022/04/24 10:41:30;;;;;;;4.13;2.90;;;31.90;29.30;;;;;;4882781;29;20568;-82
2022/04/24 10:44:10;;;;;;;4.45;3.00;;;31.90;29.60;;;;;;4870623;29;20060;-82
2022/04/24 10:46:40;;;;;;;3.47;3.03;;;32.10;30.10;;;;;;4891336;29;20160;-82
2022/04/24 10:49:11;;;;;;;3.60;3.30;;;32.20;29.20;;;;;;4892381;29;20040;-81
2022/04/24 10:51:41;;;;;;;3.88;3.20;;;32.30;29.30;;;;;;4892713;29;20055;-82
2022/04/24 10:54:15;;;;;;;3.50;3.20;;;32.40;29.00;;;;;;4895257;29;20564;-82
2022/04/24 10:56:43;;;;;;;3.70;3.08;;;32.50;28.00;;;;;;4892676;29;20127;-82
2022/04/24 10:59:15;;;;;;;3.50;3.20;;;32.60;29.00;;;;;;4888004;29;20122;-82
2022/04/24 11:01:47;;;;;;;4.07;3.20;;;32.70;28.40;;;;;;4892073;29;20213;-83
2022/04/24 11:04:14;;;;;;;4.10;3.70;;;32.80;27.50;;;;;;4893255;29;20485;-82
2022/04/24 11:06:58;;;;;;;3.40;3.10;;;32.70;27.70;;;;;;4890397;29;20032;-81
2022/04/24 11:09:30;;;;;;;3.30;2.80;;;32.70;27.90;;;;;;4893520;29;20519;-81
2022/04/24 11:12:01;;;;;;;4.00;3.22;;;32.80;27.60;;;;;;4900695;29;21382;-82
2022/04/24 11:14:28;;;;;;;4.28;2.60;;;32.80;27.70;;;;;;4885165;29;20037;-85
2022/04/24 11:16:59;;;;;;;3.35;3.05;;;32.90;28.00;;;;;;4875639;29;20032;-80
2022/04/24 11:19:38;;;;;;;3.20;2.90;;;33.00;27.60;;;;;;4891608;29;20055;-82
2022/04/24 11:22:07;;;;;;;3.83;2.70;;;33.00;26.90;;;;;;4881215;29;20059;-82
2022/04/24 11:24:38;;;;;;;2.63;2.42;;;32.90;26.50;;;;;;4896675;29;20281;-82
2022/04/24 11:27:07;;;;;;;3.35;2.85;;;32.80;26.70;;;;;;4899611;29;20132;-81
2022/04/24 11:29:33;;;;;;;3.05;2.75;;;32.80;26.90;;;;;;4877134;29;20342;-82
2022/04/24 11:32:00;;;;;;;2.97;2.77;;;32.80;26.90;;;;;;4883195;29;20421;-82
2022/04/24 11:34:25;;;;;;;3.08;2.78;;;32.70;26.60;;;;;;4887367;29;20036;-82
2022/04/24 11:36:57;;;;;;;3.77;2.90;;;32.70;26.60;;;;;;4879572;29;20437;-81
2022/04/24 11:39:23;;;;;;;3.10;2.80;;;32.50;25.40;;;;;;4903669;29;20405;-80
2022/04/24 11:41:51;;;;;;;5.10;3.30;;;32.40;26.20;;;;;;4897286;29;20036;-81
2022/04/24 11:50:17;;;;;;;3.17;2.50;;;32.20;26.50;;;;;;4895030;29;20048;-81
2022/04/24 11:52:49;;;;;;;2.90;2.58;;;32.40;26.50;;;;;;4894891;29;20103;-82
2022/04/24 11:55:17;;;;;;;2.88;2.55;;;32.40;26.00;;;;;;4916611;29;20352;-82
2022/04/24 11:57:43;;;;;;;3.00;2.63;;;32.50;26.30;;;;;;4893659;29;20449;-83
2022/04/24 12:00:18;;;;;;;2.70;2.50;;;32.60;27.00;;;;;;4891861;29;20096;-82
2022/04/24 12:02:44;;;;;;;2.80;2.60;;;32.70;26.40;;;;;;4873795;29;20172;-81
2022/04/24 12:05:11;;;;;;;3.85;2.92;;;32.80;26.30;;;;;;4882742;29;20480;-84
2022/04/24 12:07:37;;;;;;;3.03;2.72;;;33.00;26.10;;;;;;4874074;29;20492;-82
2022/04/24 12:10:09;;;;;;;3.08;2.70;;;33.10;26.20;;;;;;4877025;29;20043;-82
2022/04/24 12:12:49;;;;;;;3.00;2.65;;;33.20;25.50;;;;;;4900720;29;20068;-82
2022/04/24 12:15:16;;;;;;;2.80;2.60;;;33.10;25.00;;;;;;4896168;29;20541;-83
2022/04/24 12:17:56;;;;;;;3.38;2.80;;;33.00;25.20;;;;;;4872258;29;20052;-82
2022/04/24 12:20:34;;;;;;;3.13;2.80;;;32.90;25.10;;;;;;4890643;29;20968;-81
2022/04/24 12:23:13;;;;;;;3.38;2.60;;;32.90;25.30;;;;;;4889054;29;20067;-82
2022/04/24 12:25:59;;;;;;;4.18;2.40;;;32.80;24.90;;;;;;4891910;29;20379;-82
2022/04/24 12:28:41;;;;;;;2.60;2.40;;;32.70;24.10;;;;;;4907396;29;20418;-81
2022/04/24 12:31:18;;;;;;;4.00;2.88;;;32.60;24.60;;;;;;4886042;29;20107;-82
2022/04/24 12:33:45;;;;;;;4.35;2.90;;;32.50;25.30;;;;;;4877285;29;20076;-83
2022/04/24 12:36:13;;;;;;;3.15;2.60;;;32.30;24.70;;;;;;4881147;29;20478;-82
2022/04/24 12:38:39;;;;;;;2.90;2.55;;;32.20;24.90;;;;;;4892287;29;20393;-82
2022/04/24 12:41:10;;;;;;;3.07;2.53;;;32.20;25.20;;;;;;4888138;29;20119;-82
2022/04/24 12:43:35;;;;;;;3.22;2.50;;;32.20;24.60;;;;;;4899822;29;20075;-82
2022/04/24 12:46:01;;;;;;;3.00;2.70;;;32.30;25.40;;;;;;4887923;29;20501;-83
2022/04/24 12:48:27;;;;;;;3.03;2.73;;;32.40;25.50;;;;;;4880840;29;20441;-82
2022/04/24 12:50:53;;;;;;;2.90;2.60;;;32.50;25.10;;;;;;4893789;29;20036;-81
2022/04/24 12:53:22;;;;;;;3.10;2.80;;;32.50;24.60;;;;;;4884251;29;20257;-82
2022/04/24 12:55:50;;;;;;;3.47;2.90;;;32.50;24.80;;;;;;4888227;29;20107;-82
2022/04/24 12:58:17;;;;;;;3.83;2.83;;;32.50;25.10;;;;;;4897790;29;20063;-81